createdAt,value
2023-03-20T00:00:42.193Z,97483.94
2023-03-20T00:03:44.168Z,97484.41
2023-03-20T00:06:45.814Z,97493.81
2023-03-20T00:09:47.818Z,97492.84
2023-03-20T00:12:50.182Z,97488.31
2023-03-20T00:15:56.493Z,97489.53
2023-03-20T00:18:58.781Z,97489.34
2023-03-20T00:22:00.850Z,97493.41
2023-03-20T00:25:02.367Z,97504.09
2023-03-20T00:28:28.614Z,97500.41
2023-03-20T00:31:38.353Z,97501.22
2023-03-20T00:34:39.883Z,97496.69
2023-03-20T00:37:41.358Z,97499.56
2023-03-20T00:40:42.955Z,97506.56
2023-03-20T00:43:48.181Z,97509.66
2023-03-20T00:46:54.003Z,97497.75
2023-03-20T00:49:58.672Z,97511.91
2023-03-20T00:53:00.670Z,97500.41
2023-03-20T00:56:02.811Z,97511.91
2023-03-20T00:59:04.884Z,97517.25
2023-03-20T01:02:06.844Z,97510.03
2023-03-20T01:05:08.661Z,97513.75
2023-03-20T01:08:28.107Z,97513.16
2023-03-20T01:11:29.638Z,97504.09
2023-03-20T01:14:31.224Z,97503.03
2023-03-20T01:17:32.903Z,97507.38
2023-03-20T01:20:34.423Z,97507.38
2023-03-20T01:23:35.920Z,97502.84
2023-03-20T01:26:40.222Z,97504.06
2023-03-20T01:29:42.184Z,97509.59
2023-03-20T01:32:44.592Z,97515.53
2023-03-20T01:35:48.058Z,97514.94
2023-03-20T01:38:56.530Z,97517.00
2023-03-20T01:41:58.674Z,97518.50
2023-03-20T01:45:02.046Z,97512.09
2023-03-20T01:48:16.949Z,97519.31
2023-03-20T01:51:24.366Z,97513.97
2023-03-20T01:54:37.422Z,97510.47
2023-03-20T01:57:45.248Z,97509.44
2023-03-20T02:00:49.108Z,97495.06
2023-03-20T02:03:52.637Z,97505.72
2023-03-20T02:07:20.152Z,97513.16
2023-03-20T02:10:36.717Z,97514.56
2023-03-20T02:13:55.722Z,97519.69
2023-03-20T02:16:58.697Z,97518.91
2023-03-20T02:20:32.913Z,97520.06
2023-03-20T02:23:40.665Z,97517.66
2023-03-20T02:27:08.856Z,97521.72
2023-03-20T02:30:45.929Z,97523.59
2023-03-20T02:34:03.647Z,97527.50
2023-03-20T02:37:23.892Z,97529.34
2023-03-20T02:40:37.012Z,97518.09
2023-03-20T02:43:48.451Z,97533.25
2023-03-20T02:47:16.457Z,97529.78
2023-03-20T02:50:42.998Z,97536.53
2023-03-20T02:53:55.353Z,97537.34
2023-03-20T02:57:04.271Z,97545.59
2023-03-20T03:00:14.020Z,97545.75
2023-03-20T03:03:22.719Z,97540.81
2023-03-20T03:06:31.476Z,97544.34
2023-03-20T03:09:41.369Z,97550.69
2023-03-20T03:12:46.955Z,97548.03
2023-03-20T03:15:54.071Z,97543.09
2023-03-20T03:19:18.614Z,97545.19
2023-03-20T03:22:21.423Z,97542.91
2023-03-20T03:25:27.016Z,97548.47
2023-03-20T03:28:38.800Z,97557.28
2023-03-20T03:31:41.232Z,97557.28
2023-03-20T03:34:43.290Z,97564.47
2023-03-20T03:38:06.579Z,97564.06
2023-03-20T03:41:30.898Z,97570.00
2023-03-20T03:44:42.853Z,97567.94
2023-03-20T03:47:57.393Z,97578.41
2023-03-20T03:51:05.792Z,97582.34
2023-03-20T03:54:16.659Z,97575.13
2023-03-20T03:57:29.635Z,97575.13
2023-03-20T04:00:34.041Z,97577.56
2023-03-20T04:03:40.141Z,97571.81
2023-03-20T04:06:42.323Z,97573.88
2023-03-20T04:09:43.956Z,97568.34
2023-03-20T04:12:45.897Z,97572.25
2023-03-20T04:15:47.412Z,97561.59
2023-03-20T04:18:49.676Z,97565.50
2023-03-20T04:21:51.992Z,97558.72
2023-03-20T04:24:53.754Z,97558.91
2023-03-20T04:27:55.692Z,97558.09
2023-03-20T04:31:26.109Z,97558.50
2023-03-20T04:34:40.088Z,97551.72
2023-03-20T04:37:58.897Z,97560.97
2023-03-20T04:41:01.451Z,97559.13
2023-03-20T04:44:03.557Z,97560.38
2023-03-20T04:47:07.141Z,97559.94
2023-03-20T04:50:13.891Z,97570.00
2023-03-20T04:53:15.954Z,97570.63
2023-03-20T04:56:18.187Z,97574.72
2023-03-20T04:59:20.946Z,97572.66
2023-03-20T05:02:22.698Z,97582.31
2023-03-20T05:05:24.619Z,97585.59
2023-03-20T05:08:26.176Z,97586.66
2023-03-20T05:11:32.036Z,97576.78
2023-03-20T05:14:46.424Z,97563.84
2023-03-20T05:18:12.301Z,97557.28
2023-03-20T05:21:32.630Z,97562.63
2023-03-20T05:24:46.783Z,97566.13
2023-03-20T05:28:06.821Z,97580.50
2023-03-20T05:31:23.187Z,97589.50
2023-03-20T05:34:45.042Z,97593.84
2023-03-20T05:37:53.813Z,97582.16
2023-03-20T05:41:06.556Z,97587.47
2023-03-20T05:44:18.272Z,97593.44
2023-03-20T05:47:54.959Z,97590.16
2023-03-20T05:51:02.621Z,97586.66
2023-03-20T05:54:22.442Z,97589.13
2023-03-20T05:57:59.455Z,97602.44
2023-03-20T06:01:21.630Z,97610.66
2023-03-20T06:04:37.355Z,97604.06
2023-03-20T06:07:47.762Z,97608.41
2023-03-20T06:10:51.547Z,97603.06
2023-03-20T06:13:55.650Z,97604.31
2023-03-20T06:17:01.583Z,97610.44
2023-03-20T06:20:03.616Z,97614.94
2023-03-20T06:23:06.232Z,97608.41
2023-03-20T06:26:08.153Z,97601.44
2023-03-20T06:29:22.045Z,97606.34
2023-03-20T06:32:27.102Z,97606.34
2023-03-20T06:35:32.076Z,97614.75
2023-03-20T06:38:33.771Z,97617.63
2023-03-20T06:41:41.417Z,97625.44
2023-03-20T06:44:44.984Z,97628.91
2023-03-20T06:48:09.238Z,97624.78
2023-03-20T06:51:10.852Z,97624.75
2023-03-20T06:54:23.140Z,97627.41
2023-03-20T06:57:25.912Z,97627.13
2023-03-20T07:00:27.536Z,97629.38
2023-03-20T07:03:30.122Z,97626.50
2023-03-20T07:06:33.562Z,97629.16
2023-03-20T07:09:35.683Z,97636.94
2023-03-20T07:12:37.668Z,97637.13
2023-03-20T07:15:39.208Z,97635.66
2023-03-20T07:18:42.424Z,97634.97
2023-03-20T07:21:44.961Z,97644.44
2023-03-20T07:24:48.846Z,97646.28
2023-03-20T07:27:50.907Z,97647.13
2023-03-20T07:30:56.085Z,97655.34
2023-03-20T07:33:59.488Z,97658.66
2023-03-20T07:37:01.339Z,97668.22
2023-03-20T07:40:04.704Z,97676.75
2023-03-20T07:43:08.772Z,97673.03
2023-03-20T07:46:36.266Z,97680.00
2023-03-20T07:49:39.348Z,97680.88
2023-03-20T07:52:51.341Z,97675.09
2023-03-20T07:55:55.814Z,97675.25
2023-03-20T07:58:57.330Z,97682.19
2023-03-20T08:01:58.851Z,97675.97
2023-03-20T08:05:00.707Z,97674.94
2023-03-20T08:08:02.475Z,97670.91
2023-03-20T08:11:04.526Z,97670.00
2023-03-20T08:14:06.073Z,97663.56
2023-03-20T08:17:14.902Z,97669.19
2023-03-20T08:20:17.561Z,97675.97
2023-03-20T08:23:20.755Z,97676.91
2023-03-20T08:26:23.058Z,97675.28
2023-03-20T08:29:24.635Z,97670.22
2023-03-20T08:32:26.560Z,97674.88
2023-03-20T08:35:33.204Z,97666.72
2023-03-20T08:38:35.963Z,97670.84
2023-03-20T08:41:43.554Z,97669.38
2023-03-20T08:44:45.707Z,97666.75
2023-03-20T08:47:48.745Z,97664.13
2023-03-20T08:50:50.447Z,97661.91
2023-03-20T08:53:52.106Z,97658.06
2023-03-20T08:56:53.659Z,97650.41
2023-03-20T08:59:55.165Z,97657.25
2023-03-20T09:02:57.095Z,97659.75
2023-03-20T09:05:58.762Z,97662.53
2023-03-20T09:09:00.419Z,97656.66
2023-03-20T09:12:01.973Z,97652.41
2023-03-20T09:15:05.184Z,97656.22
2023-03-20T09:18:06.650Z,97653.09
2023-03-20T09:21:08.325Z,97660.25
2023-03-20T09:24:09.936Z,97668.50
2023-03-20T09:27:13.859Z,97672.94
2023-03-20T09:30:15.676Z,97675.25
2023-03-20T09:33:18.545Z,97671.94
2023-03-20T09:36:20.145Z,97663.09
2023-03-20T09:39:21.694Z,97672.47
2023-03-20T09:42:55.706Z,97671.97
2023-03-20T09:46:19.882Z,97676.59
2023-03-20T09:49:25.462Z,97675.34
2023-03-20T09:52:36.094Z,97669.63
2023-03-20T09:55:40.510Z,97663.63
2023-03-20T09:58:42.668Z,97660.88
2023-03-20T10:01:55.521Z,97667.63
2023-03-20T10:04:57.443Z,97670.19
2023-03-20T10:08:01.955Z,97671.66
2023-03-20T10:11:22.863Z,97019.53
2023-03-20T10:14:48.277Z,96762.31
2023-03-20T10:18:08.196Z,96992.81
2023-03-20T10:21:18.957Z,94486.25
2023-03-20T10:24:32.085Z,93982.88
2023-03-20T10:27:43.901Z,94073.63
2023-03-20T10:31:09.833Z,93784.06
2023-03-20T10:34:44.052Z,93839.28
2023-03-20T10:38:02.899Z,93742.91
2023-03-20T10:41:13.030Z,97681.63
2023-03-20T10:44:19.020Z,97681.19
2023-03-20T10:47:24.573Z,97695.38
2023-03-20T10:50:36.355Z,97688.66
2023-03-20T10:53:47.316Z,97695.31
2023-03-20T10:56:51.929Z,97703.03
2023-03-20T10:59:58.737Z,97697.66
2023-03-20T11:03:00.247Z,97689.59
2023-03-20T11:06:10.080Z,97690.06
2023-03-20T11:09:19.148Z,97688.91
2023-03-20T11:12:20.989Z,97704.59
2023-03-20T11:15:32.691Z,97678.91
2023-03-20T11:18:34.541Z,97675.00
2023-03-20T11:21:46.699Z,97678.13
2023-03-20T11:24:54.082Z,97671.94
2023-03-20T11:27:56.474Z,97680.53
2023-03-20T11:31:04.737Z,97670.63
2023-03-20T11:34:06.771Z,97677.94
2023-03-20T11:37:23.881Z,97675.22
2023-03-20T11:40:31.785Z,97673.56
2023-03-20T11:43:38.218Z,97670.25
2023-03-20T11:46:39.934Z,97660.91
2023-03-20T11:49:53.841Z,97667.59
2023-03-20T11:52:55.792Z,97665.97
2023-03-20T11:56:21.668Z,97655.81
2023-03-20T11:59:27.378Z,97661.44
2023-03-20T12:02:29.085Z,97654.69
2023-03-20T12:05:39.533Z,97652.38
2023-03-20T12:08:46.090Z,97657.63
2023-03-20T12:12:00.136Z,97653.63
2023-03-20T12:15:31.788Z,97646.16
2023-03-20T12:18:45.487Z,97644.69
2023-03-20T12:21:55.769Z,97643.78
2023-03-20T12:25:23.219Z,97636.25
2023-03-20T12:28:48.233Z,97637.09
2023-03-20T12:31:58.343Z,97629.78
2023-03-20T12:35:11.126Z,97638.50
2023-03-20T12:38:23.540Z,97623.63
2023-03-20T12:41:30.613Z,97616.97
2023-03-20T12:44:51.077Z,97623.72
2023-03-20T12:48:06.769Z,97617.66
2023-03-20T12:51:24.461Z,97607.22
2023-03-20T12:54:36.424Z,97607.75
2023-03-20T12:58:27.065Z,97602.59
2023-03-20T13:01:45.953Z,97596.22
2023-03-20T13:04:55.887Z,97585.34
2023-03-20T13:08:29.460Z,97591.19
2023-03-20T13:11:39.145Z,97588.25
2023-03-20T13:14:46.122Z,97587.31
2023-03-20T13:17:59.830Z,97577.84
2023-03-20T13:21:10.649Z,97568.06
2023-03-20T13:24:26.004Z,97561.16
2023-03-20T13:27:39.202Z,97562.31
2023-03-20T13:30:54.018Z,97552.97
2023-03-20T13:34:02.247Z,97556.94
2023-03-20T13:37:44.267Z,97552.16
2023-03-20T13:40:47.200Z,97557.19
2023-03-20T13:43:54.201Z,97552.53
2023-03-20T13:47:19.267Z,97553.22
2023-03-20T13:50:39.050Z,97547.38
2023-03-20T13:54:17.880Z,97559.69
2023-03-20T13:57:46.367Z,97555.88
2023-03-20T14:01:05.839Z,97559.56
2023-03-20T14:04:16.040Z,97550.47
2023-03-20T14:07:33.850Z,97543.28
2023-03-20T14:10:36.968Z,97540.69
2023-03-20T14:13:40.084Z,97547.50
2023-03-20T14:16:42.334Z,97535.56
2023-03-20T14:19:44.005Z,97533.78
2023-03-20T14:22:46.314Z,97541.97
2023-03-20T14:25:48.481Z,97541.78
2023-03-20T14:29:13.258Z,97529.84
2023-03-20T14:32:14.818Z,97535.50
2023-03-20T14:35:26.788Z,97533.47
2023-03-20T14:39:10.093Z,97539.00
2023-03-20T14:42:37.161Z,97535.94
2023-03-20T14:45:44.767Z,97536.03
2023-03-20T14:48:52.572Z,97539.59
2023-03-20T14:52:09.507Z,97532.06
2023-03-20T14:55:32.515Z,97528.75
2023-03-20T14:58:40.202Z,97523.28
2023-03-20T15:01:46.303Z,97519.97
2023-03-20T15:04:48.494Z,97517.47
2023-03-20T15:07:50.256Z,97514.84
2023-03-20T15:10:56.688Z,97520.16
2023-03-20T15:14:00.964Z,97516.16
2023-03-20T15:17:03.848Z,97521.41
2023-03-20T15:20:25.113Z,97509.47
2023-03-20T15:23:26.627Z,97511.94
2023-03-20T15:26:30.217Z,97511.44
2023-03-20T15:29:33.074Z,97515.66
2023-03-20T15:32:35.796Z,97516.50
2023-03-20T15:35:38.913Z,97512.44
2023-03-20T15:38:40.564Z,97514.09
2023-03-20T15:41:51.110Z,97510.22
2023-03-20T15:44:55.860Z,97514.13
2023-03-20T15:48:18.452Z,97511.81
2023-03-20T15:51:24.497Z,97518.38
2023-03-20T15:54:37.375Z,97503.56
2023-03-20T15:57:41.064Z,97498.13
2023-03-20T16:00:45.790Z,97490.59
2023-03-20T16:03:48.051Z,97498.59
2023-03-20T16:06:56.142Z,97489.94
2023-03-20T16:09:59.411Z,97488.13
2023-03-20T16:13:01.762Z,97482.34
2023-03-20T16:16:04.849Z,97488.78
2023-03-20T16:19:07.876Z,97482.69
2023-03-20T16:22:18.678Z,97475.78
2023-03-20T16:25:20.467Z,97473.25
2023-03-20T16:28:21.954Z,97472.25
2023-03-20T16:31:28.614Z,97469.19
2023-03-20T16:34:36.183Z,97465.84
2023-03-20T16:37:43.568Z,97474.75
2023-03-20T16:40:45.295Z,97470.53
2023-03-20T16:43:54.309Z,97470.13
2023-03-20T16:47:20.916Z,97474.31
2023-03-20T16:50:23.718Z,97476.25
2023-03-20T16:53:28.852Z,97468.41
2023-03-20T16:56:36.960Z,97474.00
2023-03-20T16:59:40.043Z,97471.34
2023-03-20T17:02:41.708Z,97474.38
2023-03-20T17:06:06.604Z,97478.72
2023-03-20T17:09:08.047Z,97470.84
2023-03-20T17:12:18.213Z,97469.94
2023-03-20T17:15:23.676Z,97475.06
2023-03-20T17:18:25.736Z,97472.88
2023-03-20T17:21:27.719Z,97469.97
2023-03-20T17:24:29.263Z,97474.97
2023-03-20T17:27:31.029Z,97469.38
2023-03-20T17:30:32.491Z,97469.78
2023-03-20T17:33:36.660Z,97464.00
2023-03-20T17:36:38.729Z,97470.25
2023-03-20T17:39:40.730Z,97473.88
2023-03-20T17:42:43.268Z,97482.41
2023-03-20T17:45:46.151Z,97475.75
2023-03-20T17:48:49.015Z,97471.41
2023-03-20T17:51:50.615Z,97464.78
2023-03-20T17:54:52.683Z,97475.38
2023-03-20T17:57:54.129Z,97469.34
2023-03-20T18:00:55.879Z,97475.78
2023-03-20T18:03:57.482Z,97475.72
2023-03-20T18:06:58.967Z,97489.16
2023-03-20T18:10:00.455Z,97495.72
2023-03-20T18:13:02.133Z,97495.72
2023-03-20T18:16:03.854Z,97493.25
2023-03-20T18:19:05.506Z,97487.09
2023-03-20T18:22:07.161Z,97485.47
2023-03-20T18:25:09.176Z,97493.88
2023-03-20T18:28:18.554Z,97510.91
2023-03-20T18:31:21.019Z,97516.38
2023-03-20T18:34:22.625Z,97507.09
2023-03-20T18:37:24.065Z,97513.00
2023-03-20T18:40:28.718Z,97520.63
2023-03-20T18:43:30.301Z,97519.38
2023-03-20T18:46:31.977Z,97518.72
2023-03-20T18:49:38.514Z,97514.22
2023-03-20T18:52:40.246Z,97523.94
2023-03-20T18:55:42.338Z,97528.53
2023-03-20T18:58:45.278Z,97519.16
2023-03-20T19:01:46.832Z,97520.91
2023-03-20T19:04:48.473Z,97529.09
2023-03-20T19:07:50.474Z,97523.47
2023-03-20T19:10:52.263Z,97519.16
2023-03-20T19:13:54.284Z,97524.19
2023-03-20T19:16:56.254Z,97517.00
2023-03-20T19:19:57.783Z,97507.25
2023-03-20T19:23:01.222Z,97506.03
2023-03-20T19:26:02.679Z,97507.25
2023-03-20T19:29:09.225Z,97502.44
2023-03-20T19:32:11.486Z,97498.84
2023-03-20T19:35:44.226Z,97501.06
2023-03-20T19:38:37.437Z,97504.34
2023-03-20T19:41:39.410Z,97503.09
2023-03-20T19:44:40.919Z,97509.03
2023-03-20T19:47:42.382Z,97502.47
2023-03-20T19:50:49.341Z,97501.06
2023-03-20T19:53:50.856Z,97508.44
2023-03-20T19:56:52.398Z,97510.09
2023-03-20T19:59:53.921Z,97504.97
2023-03-20T20:02:55.951Z,97505.59
2023-03-20T20:05:59.217Z,97513.41
2023-03-20T20:09:01.582Z,97506.78
2023-03-20T20:12:04.267Z,97502.50
2023-03-20T20:15:07.944Z,97497.75
2023-03-20T20:18:09.548Z,97490.38
2023-03-20T20:22:02.553Z,97489.97
2023-03-20T20:24:33.885Z,97493.91
2023-03-20T20:27:36.030Z,97497.59
2023-03-20T20:30:38.918Z,97491.81
2023-03-20T20:33:41.600Z,97501.09
2023-03-20T20:37:29.099Z,97497.56
2023-03-20T20:40:06.045Z,97499.41
2023-03-20T20:43:10.277Z,97501.66
2023-03-20T20:46:12.348Z,97500.84
2023-03-20T20:49:19.585Z,97499.63
2023-03-20T20:52:21.769Z,97495.91
2023-03-20T20:55:25.035Z,97493.03
2023-03-20T20:58:26.760Z,97498.97
2023-03-20T21:01:28.448Z,97500.59
2023-03-20T21:04:30.047Z,97500.97
2023-03-20T21:07:31.650Z,97505.06
2023-03-20T21:10:33.196Z,97509.75
2023-03-20T21:13:36.771Z,97501.72
2023-03-20T21:16:38.388Z,97509.47
2023-03-20T21:19:41.187Z,97511.06
2023-03-20T21:22:42.708Z,97505.72
2023-03-20T21:25:47.827Z,97500.91
2023-03-20T21:28:49.649Z,97501.72
2023-03-20T21:31:51.663Z,97503.22
2023-03-20T21:34:53.992Z,97501.41
2023-03-20T21:41:17.517Z,97503.38
2023-03-20T21:44:50.255Z,97506.88
2023-03-20T21:48:23.591Z,97506.94
2023-03-20T21:58:29.203Z,97505.31
2023-03-20T22:01:48.912Z,97500.38
2023-03-20T22:08:46.527Z,97484.81
2023-03-20T22:18:42.232Z,97480.34
2023-03-20T22:21:57.370Z,97484.00
2023-03-20T22:32:01.985Z,97488.28
2023-03-20T22:35:37.961Z,97488.28
2023-03-20T22:42:13.902Z,97471.44
2023-03-20T22:45:01.394Z,97474.50
2023-03-20T22:48:05.542Z,97466.50
2023-03-20T22:51:07.612Z,97469.28
2023-03-20T22:54:09.120Z,97463.75
2023-03-20T22:57:10.848Z,97458.16
2023-03-20T23:00:14.360Z,97456.91
2023-03-20T23:03:29.684Z,97450.91
2023-03-20T23:06:38.185Z,97454.63
2023-03-20T23:09:39.705Z,97454.56
2023-03-20T23:12:43.899Z,97452.44
2023-03-20T23:15:46.905Z,97448.97
2023-03-20T23:18:48.456Z,97448.34
2023-03-20T23:21:49.950Z,97454.66
2023-03-20T23:24:52.128Z,97445.84
2023-03-20T23:27:58.112Z,97442.16
2023-03-20T23:31:10.492Z,97442.16
2023-03-20T23:34:12.514Z,97435.56
2023-03-20T23:37:14.287Z,97442.03
2023-03-20T23:40:17.095Z,97430.28
2023-03-20T23:43:19.388Z,97425.50
2023-03-20T23:46:20.948Z,97431.81
2023-03-20T23:49:22.549Z,97431.94
2023-03-20T23:52:23.995Z,97424.69
2023-03-20T23:55:25.539Z,97427.53
2023-03-20T23:58:27.547Z,97424.41
